TimeCDT,TemperatureF,Dew PointF,Humidity,Sea Level PressureIn,VisibilityMPH,Wind Direction,Wind SpeedMPH,Gust SpeedMPH,PrecipitationIn,Events,Conditions,WindDirDegrees,DateUTC
12:53 AM,70.0,43.0,38,29.72,10.0,SSE,29.9,39.1,N/A,,Clear,160,2011-10-07 05:53:00
1:53 AM,70.0,44.1,39,29.71,10.0,SSE,20.7,38.0,N/A,,Clear,160,2011-10-07 06:53:00
2:53 AM,70.0,46.0,42,29.75,10.0,South,23.0,28.8,N/A,,Mostly Cloudy,180,2011-10-07 07:53:00
3:53 AM,66.9,48.9,52,29.77,10.0,South,17.3,26.5,0.00,Rain,Light Rain,190,2011-10-07 08:53:00
4:11 AM,66.2,48.2,52,29.80,10.0,South,11.5,-,0.00,Thunderstorm,Overcast,180,2011-10-07 09:11:00
4:45 AM,66.2,48.2,52,29.80,10.0,South,11.5,-,0.00,,Overcast,170,2011-10-07 09:45:00
4:53 AM,66.9,48.0,51,29.76,10.0,South,10.4,-,0.00,,Overcast,170,2011-10-07 09:53:00
5:53 AM,64.9,50.0,58,29.78,10.0,SSE,5.8,-,0.00,,Overcast,150,2011-10-07 10:53:00
6:53 AM,64.9,54.0,68,29.79,10.0,Calm,Calm,-,N/A,,Overcast,0,2011-10-07 11:53:00
7:53 AM,66.9,51.1,57,29.78,10.0,South,12.7,-,N/A,,Overcast,170,2011-10-07 12:53:00
8:53 AM,70.0,53.1,55,29.78,10.0,South,21.9,29.9,N/A,,Scattered Clouds,170,2011-10-07 13:53:00
9:53 AM,72.0,54.0,53,29.80,10.0,South,27.6,35.7,N/A,,Mostly Cloudy,190,2011-10-07 14:53:00
10:53 AM,73.4,55.4,53,29.85,10.0,South,25.3,36.8,N/A,,Mostly Cloudy,180,2011-10-07 15:53:00
11:53 AM,77.0,57.2,50,29.85,10.0,SSW,27.6,39.1,N/A,,Scattered Clouds,200,2011-10-07 16:53:00
12:53 PM,77.0,59.0,54,29.81,10.0,South,25.3,33.4,N/A,,Overcast,190,2011-10-07 17:53:00
1:53 PM,79.0,60.1,52,29.80,10.0,South,27.6,34.5,N/A,,Mostly Cloudy,190,2011-10-07 18:53:00
2:53 PM,79.0,60.1,52,29.78,10.0,South,23.0,31.1,N/A,,Mostly Cloudy,170,2011-10-07 19:53:00
3:42 PM,78.8,60.8,54,29.83,10.0,South,20.7,29.9,N/A,,Mostly Cloudy,170,2011-10-07 20:42:00
3:49 PM,75.2,62.6,65,29.83,8.0,South,17.3,25.3,0.00,Rain-Thunderstorm,Rain,170,2011-10-07 20:49:00
3:53 PM,73.0,64.0,73,29.80,5.0,South,16.1,-,0.02,Rain-Thunderstorm,Rain,180,2011-10-07 20:53:00
3:58 PM,73.4,64.4,73,29.84,1.8,SSW,17.3,-,0.08,Rain-Thunderstorm,Heavy Rain,200,2011-10-07 20:58:00
4:05 PM,69.8,64.4,83,29.83,0.8,West,21.9,26.5,0.26,Rain-Thunderstorm,Heavy Thunderstorms and Rain,260,2011-10-07 21:05:00
4:07 PM,69.8,64.4,83,29.83,1.0,West,19.6,26.5,0.27,Rain-Thunderstorm,Light Thunderstorms and Rain,270,2011-10-07 21:07:00
4:11 PM,69.8,64.4,83,29.83,3.0,West,17.3,29.9,0.28,Rain-Thunderstorm,Light Thunderstorms and Rain,260,2011-10-07 21:11:00
4:14 PM,69.8,64.4,83,29.83,10.0,SW,11.5,29.9,0.28,Rain-Thunderstorm,Light Thunderstorms and Rain,230,2011-10-07 21:14:00
4:22 PM,71.6,64.4,78,29.83,10.0,SSW,12.7,20.7,0.28,,Overcast,210,2011-10-07 21:22:00
4:53 PM,75.0,63.0,66,29.78,10.0,South,18.4,28.8,0.28,,Mostly Cloudy,180,2011-10-07 21:53:00
5:53 PM,75.0,62.1,64,29.78,10.0,SSE,20.7,28.8,N/A,Thunderstorm,Partly Cloudy,160,2011-10-07 22:53:00
6:53 PM,73.9,61.0,64,29.80,10.0,SSE,24.2,33.4,N/A,Thunderstorm,Scattered Clouds,160,2011-10-07 23:53:00
7:53 PM,72.0,61.0,68,29.83,10.0,SSE,15.0,25.3,N/A,,Mostly Cloudy,160,2011-10-08 00:53:00
8:53 PM,71.1,60.1,68,29.86,10.0,South,12.7,-,N/A,,Scattered Clouds,170,2011-10-08 01:53:00
9:53 PM,70.0,60.1,71,29.87,10.0,SSE,9.2,-,N/A,,Mostly Cloudy,160,2011-10-08 02:53:00
10:53 PM,71.1,60.1,68,29.87,10.0,South,17.3,24.2,N/A,,Clear,170,2011-10-08 03:53:00
11:53 PM,72.0,60.1,66,29.85,10.0,SSE,21.9,32.2,N/A,,Partly Cloudy,160,2011-10-08 04:53:00